Time;durP1;ratioP1;P1;durP2;ratioP2;P2;SDS_P1;SDS_P2;PMS_P1;PMS_P2;Temp;Humidity;BMP_temperature;BMP_pressure;BME280_temperature;BME280_humidity;BME280_pressure;Samples;Min_cycle;Max_cycle;Signal;HPM_P1;HPM_P2
2023/01/20 00:01:22;;;;;;;22.90;9.40;;;;;;;4.50;77.43;99711.96;78062;1301;3052041;-61
2023/01/20 00:03:50;;;;;;;20.90;10.60;;;;;;;5.11;75.84;99714.33;79310;1301;3013864;-61
2023/01/20 00:06:16;;;;;;;19.90;9.20;;;;;;;5.62;73.78;99713.41;79284;1295;3011458;-61
2023/01/20 00:08:49;;;;;;;24.20;10.60;;;;;;;5.71;72.60;99709.44;78098;1301;3050148;-61
2023/01/20 00:11:15;;;;;;;21.20;11.00;;;;;;;5.60;72.37;99710.35;79281;1295;3011820;-61
2023/01/20 00:13:43;;;;;;;26.20;11.50;;;;;;;5.43;72.93;99712.67;78090;1300;3049962;-62
2023/01/20 00:16:10;;;;;;;25.20;12.00;;;;;;;5.22;73.39;99710.64;79349;1301;3013527;-61
2023/01/20 00:18:37;;;;;;;25.80;12.10;;;;;;;5.06;73.71;99712.59;79221;1298;3011848;-61
2023/01/20 00:21:10;;;;;;;29.10;12.80;;;;;;;4.85;74.41;99709.10;78026;1295;3028566;-61
2023/01/20 00:23:37;;;;;;;23.20;11.50;;;;;;;4.80;74.75;99710.16;79296;1295;3011887;-60
2023/01/20 00:26:09;;;;;;;23.40;11.90;;;;;;;4.75;74.86;99704.25;78079;1301;3049387;-61
2023/01/20 00:28:36;;;;;;;24.70;11.70;;;;;;;4.65;74.93;99703.70;79252;1295;3011753;-61
2023/01/20 00:31:18;;;;;;;25.70;12.30;;;;;;;4.62;74.97;99706.20;78047;1295;3049635;-61
2023/01/20 00:33:47;;;;;;;22.20;11.30;;;;;;;4.52;75.50;99700.81;78152;1300;3053395;-61
2023/01/20 00:36:14;;;;;;;23.50;11.10;;;;;;;4.52;75.38;99701.84;79368;1299;3011814;-61
2023/01/20 00:38:41;;;;;;;27.20;12.40;;;;;;;4.51;75.34;99704.13;79360;1295;3011911;-60
2023/01/20 00:41:09;;;;;;;22.00;11.50;;;;;;;4.41;75.74;99700.96;78138;1301;3056366;-61
2023/01/20 00:43:35;;;;;;;24.90;12.60;;;;;;;4.40;75.53;99699.45;79337;1295;3019041;-60
2023/01/20 00:46:03;;;;;;;27.50;12.10;;;;;;;4.34;75.75;99694.80;79300;1295;3013239;-60
2023/01/20 00:48:31;;;;;;;18.10;9.50;;;;;;;4.29;76.21;99696.85;78181;1301;3052465;-60
2023/01/20 00:50:58;;;;;;;18.80;8.70;;;;;;;4.73;74.84;99697.69;79439;1300;3013919;-61
2023/01/20 00:53:25;;;;;;;19.50;9.90;;;;;;;5.28;72.54;99693.56;79275;1300;3011970;-60
2023/01/20 00:55:53;;;;;;;22.20;11.30;;;;;;;5.40;71.54;99690.57;78097;1301;3056034;-61
2023/01/20 00:58:19;;;;;;;26.80;12.10;;;;;;;5.24;71.60;99694.79;79284;1301;3020607;-61
2023/01/20 01:00:47;;;;;;;23.30;11.10;;;;;;;5.16;71.69;99699.05;79328;1295;3011862;-60
2023/01/20 01:03:15;;;;;;;26.60;11.80;;;;;;;4.98;72.24;99702.95;78168;1300;3052379;-60
2023/01/20 01:05:42;;;;;;;30.90;13.00;;;;;;;4.70;72.75;99699.70;79376;1300;3013765;-61
2023/01/20 01:08:09;;;;;;;28.60;12.80;;;;;;;4.59;73.21;99699.39;79272;1296;3011574;-61
2023/01/20 01:10:37;;;;;;;26.10;11.90;;;;;;;4.55;73.24;99703.85;78010;1299;3027630;-62
2023/01/20 01:13:04;;;;;;;29.10;13.10;;;;;;;4.34;74.06;99699.31;79258;1295;3013595;-62
2023/01/20 01:15:31;;;;;;;23.80;11.70;;;;;;;4.26;74.40;99705.42;79284;1296;3011699;-61
2023/01/20 01:17:59;;;;;;;27.50;12.60;;;;;;;4.25;74.62;99701.99;78074;1301;3052825;-60
2023/01/20 01:20:26;;;;;;;25.90;12.00;;;;;;;4.21;74.51;99705.26;79365;1301;3018424;-61
2023/01/20 01:22:53;;;;;;;28.00;12.40;;;;;;;4.24;74.21;99703.40;79254;1295;3011558;-60
2023/01/20 01:25:21;;;;;;;26.40;11.70;;;;;;;4.08;74.81;99705.27;78065;1295;3025451;-60
2023/01/20 01:27:48;;;;;;;27.20;12.30;;;;;;;4.02;75.11;99701.98;79347;1296;3013506;-61
2023/01/20 01:30:14;;;;;;;26.00;12.70;;;;;;;4.03;75.21;99703.20;79353;1295;3011820;-61
2023/01/20 01:32:42;;;;;;;31.40;13.40;;;;;;;4.04;75.22;99708.52;78034;1299;3028909;-62
2023/01/20 01:35:09;;;;;;;25.90;11.00;;;;;;;4.07;75.01;99703.59;79330;1301;3018558;-61
2023/01/20 01:37:35;;;;;;;25.80;12.70;;;;;;;4.16;74.57;99700.54;79293;1300;3011800;-61
2023/01/20 01:40:04;;;;;;;27.50;11.60;;;;;;;4.19;74.14;99700.11;78088;1301;3028705;-62
2023/01/20 01:42:31;;;;;;;30.50;12.50;;;;;;;4.13;74.34;99701.49;79340;1300;3013714;-61
2023/01/20 01:45:09;;;;;;;16.70;8.00;;;;;;;4.13;74.80;99702.73;79289;1301;3011789;-63
2023/01/20 01:47:39;;;;;;;16.90;8.70;;;;;;;4.72;73.54;99705.37;78055;1300;3052984;-63
2023/01/20 01:50:07;;;;;;;21.40;9.10;;;;;;;5.36;71.12;99701.82;79314;1301;3013384;-61
2023/01/20 01:52:35;;;;;;;24.20;10.40;;;;;;;5.51;70.36;99696.94;78854;1295;3013785;-62
2023/01/20 01:55:02;;;;;;;27.10;11.30;;;;;;;5.38;70.12;99699.31;79315;1301;3012940;-61
2023/01/20 01:57:30;;;;;;;24.80;11.20;;;;;;;5.27;70.23;99702.30;79265;1295;3011799;-62
2023/01/20 01:59:58;;;;;;;25.30;12.20;;;;;;;4.98;70.95;99703.64;78110;1295;3052970;-61
2023/01/20 02:02:24;;;;;;;29.10;11.20;;;;;;;4.84;71.49;99700.61;79343;1301;3012906;-63
2023/01/20 02:04:51;;;;;;;25.50;11.80;;;;;;;4.67;72.00;99696.67;79311;1301;3011897;-62
2023/01/20 02:07:20;;;;;;;24.50;11.30;;;;;;;4.60;72.29;99698.30;78037;1300;3028095;-61
2023/01/20 02:09:47;;;;;;;28.00;12.40;;;;;;;4.58;72.21;99697.52;79283;1295;3014893;-61
2023/01/20 02:12:16;;;;;;;24.50;12.20;;;;;;;4.50;72.70;99698.27;79253;1296;3011657;-61
2023/01/20 02:14:52;;;;;;;28.50;10.90;;;;;;;4.48;72.47;99695.40;78092;1301;3054737;-61
2023/01/20 02:17:24;;;;;;;25.30;12.50;;;;;;;4.37;73.04;99693.30;78181;1301;3049518;-61
2023/01/20 02:20:27;;;;;;;23.50;10.90;;;;;;;4.34;73.08;99690.09;79360;1300;3011948;-61
2023/01/20 02:23:14;;;;;;;20.80;9.40;;;;;;;4.41;72.97;99688.86;78120;1300;3052783;-61
2023/01/20 02:26:36;;;;;;;21.70;10.90;;;;;;;4.38;72.99;99684.61;78102;1301;3069513;-61
2023/01/20 02:29:42;;;;;;;21.90;10.10;;;;;;;4.27;73.32;99693.98;77669;1301;3051583;-62
2023/01/20 02:32:12;;;;;;;23.90;10.50;;;;;;;4.20;73.52;99689.13;77659;1305;3056865;-62
2023/01/20 02:35:18;;;;;;;22.20;10.20;;;;;;;4.19;73.71;99683.45;79204;1301;3011673;-62
2023/01/20 02:37:49;;;;;;;24.00;10.30;;;;;;;4.13;73.71;99674.63;77997;1299;3053182;-61
2023/01/20 02:40:30;;;;;;;22.20;10.40;;;;;;;4.11;73.74;99675.02;79313;1300;3012936;-61
2023/01/20 02:43:13;;;;;;;22.40;11.00;;;;;;;4.09;73.73;99682.40;78052;1301;3052927;-62
2023/01/20 02:45:45;;;;;;;19.80;10.30;;;;;;;4.07;73.83;99695.45;78029;1298;3053629;-62
2023/01/20 02:48:25;;;;;;;22.80;10.90;;;;;;;4.04;74.10;99699.17;79283;1299;3013182;-62
2023/01/20 02:51:09;;;;;;;20.70;9.80;;;;;;;4.04;74.01;99692.92;78039;1296;3052582;-61
2023/01/20 02:53:59;;;;;;;21.40;10.70;;;;;;;4.05;73.77;99697.23;78083;1300;3056609;-62
2023/01/20 02:56:27;;;;;;;23.40;10.40;;;;;;;4.01;73.87;99696.49;78080;1301;3049951;-62
2023/01/20 02:59:07;;;;;;;26.80;10.30;;;;;;;4.03;73.84;99696.77;79306;1301;3015191;-61
2023/01/20 03:01:49;;;;;;;23.10;10.70;;;;;;;4.07;73.56;99701.18;78086;1302;3052467;-61
2023/01/20 03:04:19;;;;;;;20.70;8.40;;;;;;;4.03;73.69;99703.38;78120;1301;3052693;-62
2023/01/20 03:06:49;;;;;;;20.50;10.40;;;;;;;3.98;73.68;99705.60;79431;1301;3013040;-62
2023/01/20 03:09:20;;;;;;;24.10;10.30;;;;;;;3.99;73.55;99708.51;78104;1295;3051132;-62
2023/01/20 03:11:50;;;;;;;26.40;10.20;;;;;;;4.02;73.61;99711.20;79351;1301;3011719;-61
2023/01/20 03:14:18;;;;;;;20.50;10.10;;;;;;;3.98;73.33;99707.52;78058;1301;3050203;-61
2023/01/20 03:16:47;;;;;;;22.50;10.30;;;;;;;3.94;73.38;99707.10;79314;1300;3012942;-61
2023/01/20 03:19:13;;;;;;;22.40;10.30;;;;;;;3.92;73.24;99708.88;79341;1296;3012339;-63
2023/01/20 03:21:41;;;;;;;25.70;10.60;;;;;;;3.88;73.26;99707.08;78113;1300;3052340;-62
2023/01/20 03:24:08;;;;;;;22.20;10.40;;;;;;;3.88;73.12;99706.39;79306;1301;3021102;-62
2023/01/20 03:26:36;;;;;;;23.10;10.40;;;;;;;3.81;73.32;99707.98;79323;1299;3013984;-61
2023/01/20 03:29:05;;;;;;;18.80;9.00;;;;;;;3.85;73.03;99704.58;78172;1301;3049341;-62
2023/01/20 03:31:39;;;;;;;21.60;10.30;;;;;;;3.91;72.84;99709.25;79345;1299;3013071;-61
2023/01/20 03:34:12;;;;;;;22.40;10.90;;;;;;;3.83;72.92;99715.20;78080;1300;3053082;-62
2023/01/20 03:36:39;;;;;;;19.40;10.20;;;;;;;3.87;72.74;99714.55;79253;1299;3013241;-61
2023/01/20 03:39:07;;;;;;;22.10;10.30;;;;;;;3.90;72.79;99715.70;78120;1296;3068010;-61
2023/01/20 03:41:35;;;;;;;22.40;9.70;;;;;;;3.90;72.53;99719.50;79365;1295;3021272;-61
2023/01/20 03:44:14;;;;;;;25.80;10.10;;;;;;;3.90;72.53;99729.74;79308;1295;3013314;-61
2023/01/20 03:46:51;;;;;;;20.10;10.00;;;;;;;3.90;72.53;99730.42;78069;1301;3053594;-61
2023/01/20 03:49:34;;;;;;;22.80;9.60;;;;;;;3.92;72.28;99729.35;78073;1301;3049710;-60
2023/01/20 03:52:27;;;;;;;22.10;10.20;;;;;;;3.81;72.50;99726.69;78127;1301;3051915;-60
2023/01/20 03:55:01;;;;;;;22.30;9.90;;;;;;;3.80;72.45;99724.46;78104;1301;3051733;-61
2023/01/20 03:57:32;;;;;;;23.90;9.80;;;;;;;3.83;72.20;99726.48;79327;1299;3011716;-61
2023/01/20 04:00:00;;;;;;;24.80;10.50;;;;;;;3.75;72.55;99724.45;78119;1299;3052295;-60
2023/01/20 04:02:27;;;;;;;20.90;10.20;;;;;;;3.72;72.79;99723.50;79296;1295;3013295;-61
2023/01/20 04:04:53;;;;;;;19.30;9.80;;;;;;;3.74;72.79;99719.63;79363;1299;3011625;-60
2023/01/20 04:07:22;;;;;;;24.80;10.40;;;;;;;3.73;72.60;99721.56;78073;1301;3028982;-60
2023/01/20 04:09:54;;;;;;;22.60;10.90;;;;;;;3.69;72.77;99719.23;79311;1301;3013503;-61
2023/01/20 04:12:23;;;;;;;22.10;9.80;;;;;;;3.67;72.69;99722.08;78156;1301;3069088;-60
2023/01/20 04:14:49;;;;;;;25.10;11.40;;;;;;;3.66;72.67;99717.77;79450;1299;3018774;-62
2023/01/20 04:17:16;;;;;;;22.50;10.40;;;;;;;3.71;72.53;99711.73;79352;1299;3011628;-62
2023/01/20 04:19:45;;;;;;;24.80;11.00;;;;;;;3.74;72.34;99711.84;78164;1301;3030755;-62
2023/01/20 04:22:38;;;;;;;18.90;9.20;;;;;;;3.70;72.33;99715.40;79365;1309;3018515;-61
2023/01/20 04:25:32;;;;;;;21.30;9.40;;;;;;;3.62;72.41;99717.72;78109;1301;3051212;-62
2023/01/20 04:28:00;;;;;;;23.10;10.00;;;;;;;3.64;72.47;99715.23;78191;1301;3067812;-62
2023/01/20 04:30:27;;;;;;;22.10;10.00;;;;;;;3.62;72.55;99725.48;79381;1295;3013502;-61
2023/01/20 04:32:54;;;;;;;25.30;9.90;;;;;;;3.64;72.45;99731.85;79329;1295;3011973;-60
2023/01/20 04:35:22;;;;;;;26.10;10.20;;;;;;;3.56;72.38;99730.36;78202;1305;3028506;-62
2023/01/20 04:37:49;;;;;;;24.10;9.90;;;;;;;3.55;72.36;99730.18;79347;1301;3012953;-63
2023/01/20 04:40:16;;;;;;;25.60;10.70;;;;;;;3.58;72.20;99731.33;79425;1299;3011880;-60
2023/01/20 04:42:44;;;;;;;21.00;10.00;;;;;;;3.61;72.04;99733.67;78207;1301;3026636;-61
2023/01/20 04:45:14;;;;;;;23.40;9.40;;;;;;;3.56;72.01;99737.61;79456;1299;3018138;-60
2023/01/20 04:47:43;;;;;;;19.30;9.90;;;;;;;3.47;72.28;99737.00;78849;1300;3011616;-61
2023/01/20 04:50:10;;;;;;;19.00;9.30;;;;;;;3.51;72.29;99732.73;79412;1300;3013107;-61
2023/01/20 04:52:37;;;;;;;19.30;9.40;;;;;;;3.58;72.05;99735.48;79307;1296;3013900;-60
2023/01/20 04:55:06;;;;;;;20.80;10.10;;;;;;;3.59;71.80;99736.14;78128;1302;3026596;-61
2023/01/20 04:57:33;;;;;;;20.30;9.50;;;;;;;3.59;71.83;99734.74;79484;1300;3011537;-61
2023/01/20 04:59:59;;;;;;;20.10;9.40;;;;;;;3.53;71.71;99734.76;79357;1296;3013563;-61
2023/01/20 05:02:28;;;;;;;22.10;10.00;;;;;;;3.54;71.66;99734.92;78102;1300;3056592;-63
2023/01/20 05:04:55;;;;;;;18.70;9.30;;;;;;;3.59;71.65;99734.94;79316;1296;3012923;-61
2023/01/20 05:07:21;;;;;;;24.90;9.50;;;;;;;3.52;71.74;99738.93;79346;1301;3011845;-64
2023/01/20 05:09:50;;;;;;;23.10;10.70;;;;;;;3.51;71.75;99741.05;78122;1301;3025796;-62
2023/01/20 05:12:16;;;;;;;24.00;10.60;;;;;;;3.49;71.83;99748.71;79411;1301;3018545;-61
2023/01/20 05:14:43;;;;;;;23.30;10.50;;;;;;;3.45;71.69;99747.42;79272;1300;3012743;-62
2023/01/20 05:17:11;;;;;;;22.40;11.00;;;;;;;3.44;71.86;99757.00;78082;1295;3026645;-62
2023/01/20 05:19:39;;;;;;;25.00;10.90;;;;;;;3.41;71.89;99755.35;79296;1308;3013177;-62
2023/01/20 05:22:06;;;;;;;22.40;10.70;;;;;;;3.40;71.79;99756.05;79271;1296;3011692;-62
2023/01/20 05:24:34;;;;;;;25.10;11.00;;;;;;;3.41;71.70;99761.91;78137;1301;3052281;-61
2023/01/20 05:27:01;;;;;;;26.10;10.90;;;;;;;3.38;71.59;99759.76;79359;1301;3018461;-62
2023/01/20 05:29:28;;;;;;;26.80;11.50;;;;;;;3.32;71.84;99764.05;79357;1300;3011921;-62
2023/01/20 05:31:56;;;;;;;23.70;12.10;;;;;;;3.36;71.60;99768.27;76699;1296;3028189;-62
2023/01/20 05:34:23;;;;;;;24.80;10.60;;;;;;;3.34;71.80;99764.01;79359;1300;3013537;-62
2023/01/20 05:36:52;;;;;;;25.10;11.40;;;;;;;3.39;71.56;99769.07;79286;1295;3011570;-61
2023/01/20 05:39:20;;;;;;;25.70;11.70;;;;;;;3.36;71.57;99772.96;78347;1298;3051795;-62
2023/01/20 05:41:47;;;;;;;25.90;11.00;;;;;;;3.31;71.83;99773.61;79408;1301;3012876;-61
2023/01/20 05:44:14;;;;;;;27.90;12.80;;;;;;;3.31;71.80;99767.04;79464;1299;3013646;-61
2023/01/20 05:46:42;;;;;;;26.20;10.90;;;;;;;3.24;72.03;99769.29;78181;1298;3056505;-61
2023/01/20 05:49:11;;;;;;;29.00;12.20;;;;;;;3.26;71.97;99772.35;79432;1298;3012875;-62
2023/01/20 05:51:38;;;;;;;27.40;11.70;;;;;;;3.24;71.82;99784.34;79324;1298;3013247;-61
2023/01/20 05:54:06;;;;;;;25.30;11.40;;;;;;;3.26;72.02;99781.18;78059;1302;3052033;-62
2023/01/20 05:56:33;;;;;;;23.00;10.80;;;;;;;3.33;71.75;99784.46;79393;1297;3013758;-63
2023/01/20 05:59:00;;;;;;;27.60;11.70;;;;;;;3.27;71.81;99789.30;79280;1301;3013078;-62
2023/01/20 06:01:28;;;;;;;23.90;11.20;;;;;;;3.32;71.90;99791.95;78282;1298;3028577;-63
2023/01/20 06:03:54;;;;;;;27.10;11.50;;;;;;;3.38;71.60;99792.32;79548;1296;3013707;-61
2023/01/20 06:06:21;;;;;;;22.80;10.90;;;;;;;3.42;71.49;99791.52;79458;1296;3013522;-60
2023/01/20 06:08:51;;;;;;;24.60;11.10;;;;;;;3.47;71.25;99797.95;78479;1295;3026546;-61
2023/01/20 06:11:17;;;;;;;23.60;10.30;;;;;;;3.50;71.32;99804.45;79477;1299;3013034;-61
2023/01/20 06:13:47;;;;;;;21.60;10.50;;;;;;;3.53;71.27;99808.20;79365;1295;3011621;-61
2023/01/20 06:16:16;;;;;;;25.80;11.10;;;;;;;3.51;71.03;99807.89;78077;1300;3056848;-61
2023/01/20 06:18:43;;;;;;;24.10;10.50;;;;;;;3.47;70.90;99810.45;79412;1296;3013615;-61
2023/01/20 06:21:09;;;;;;;27.90;11.50;;;;;;;3.53;70.84;99815.30;79517;1295;3013051;-61
2023/01/20 06:23:38;;;;;;;21.70;11.10;;;;;;;3.50;70.74;99815.73;78343;1298;3052061;-61
2023/01/20 06:26:07;;;;;;;26.40;12.10;;;;;;;3.45;70.62;99814.45;79507;1308;3011690;-61
2023/01/20 06:28:36;;;;;;;27.60;10.50;;;;;;;3.51;70.53;99813.09;79041;1295;3011738;-61
2023/01/20 06:31:06;;;;;;;27.50;10.20;;;;;;;3.51;70.41;99813.96;79631;1295;3013813;-61
2023/01/20 06:33:34;;;;;;;28.60;10.80;;;;;;;3.58;70.37;99813.61;78213;1295;3049560;-61
2023/01/20 06:36:01;;;;;;;24.00;10.80;;;;;;;3.62;70.12;99819.91;79635;1298;3013953;-61
2023/01/20 06:38:29;;;;;;;22.30;10.40;;;;;;;3.62;70.08;99822.15;79444;1298;3013477;-61
2023/01/20 06:41:02;;;;;;;25.30;12.00;;;;;;;3.64;70.11;99824.20;78321;1299;3051552;-61
2023/01/20 06:43:30;;;;;;;22.30;10.40;;;;;;;3.66;70.23;99818.76;79532;1302;3011514;-61
2023/01/20 06:46:05;;;;;;;26.80;11.90;;;;;;;3.70;70.12;99814.33;78366;1298;3050926;-61
2023/01/20 06:48:35;;;;;;;24.20;11.00;;;;;;;3.73;69.93;99817.91;78930;1301;3011723;-62
2023/01/20 06:51:02;;;;;;;26.20;10.90;;;;;;;3.74;69.91;99818.73;79474;1294;3013903;-61
2023/01/20 06:54:11;;;;;;;26.30;12.10;;;;;;;3.86;69.73;99822.41;79971;1301;3013476;-62
2023/01/20 06:56:38;;;;;;;28.20;11.80;;;;;;;3.81;69.54;99821.14;78804;1306;3012987;-62
2023/01/20 06:59:04;;;;;;;27.90;12.40;;;;;;;3.81;69.55;99817.50;78790;1306;3011910;-63
2023/01/20 07:01:32;;;;;;;27.90;12.00;;;;;;;3.89;69.51;99816.95;77844;1303;3026394;-62
2023/01/20 07:03:59;;;;;;;27.60;11.50;;;;;;;3.90;69.14;99819.35;79079;1301;3020434;-62
2023/01/20 07:06:30;;;;;;;27.30;11.30;;;;;;;4.02;69.10;99813.27;77895;1302;3011518;-63
2023/01/20 07:08:58;;;;;;;27.50;12.40;;;;;;;4.04;68.86;99811.34;78051;1303;3049608;-62
2023/01/20 07:11:26;;;;;;;27.70;11.70;;;;;;;4.05;68.74;99811.98;79185;1303;3013568;-62
2023/01/20 11:14:02;;;;;;;48.50;16.70;;;;;;;6.12;64.04;99687.23;80542;1302;3012978;-59
2023/01/20 11:16:29;;;;;;;39.40;16.80;;;;;;;6.27;64.04;99686.47;78906;1305;3013248;-58
2023/01/20 11:19:04;;;;;;;38.30;17.00;;;;;;;6.31;63.40;99686.50;78941;1304;3011585;-59
2023/01/20 11:21:35;;;;;;;28.80;15.40;;;;;;;6.40;63.46;99678.30;77932;1304;3052192;-59
2023/01/20 11:24:33;;;;;;;37.10;15.90;;;;;;;6.44;63.47;99680.25;79141;1304;3011812;-59
2023/01/20 11:27:04;;;;;;;43.30;17.10;;;;;;;6.50;63.34;99679.46;76586;1304;3050463;-60
2023/01/20 11:29:35;;;;;;;34.90;15.80;;;;;;;6.53;63.26;99685.98;79134;1303;3011826;-58
2023/01/20 11:32:03;;;;;;;43.10;16.50;;;;;;;6.56;63.38;99683.23;78005;1301;3048767;-58
2023/01/20 11:34:30;;;;;;;37.70;15.80;;;;;;;6.61;63.50;99679.38;79363;1297;3013519;-59
2023/01/20 11:37:24;;;;;;;45.40;17.10;;;;;;;6.64;63.36;99677.88;79210;1299;3011596;-61
2023/01/20 11:39:57;;;;;;;38.70;16.50;;;;;;;6.59;63.26;99678.59;78011;1301;3053717;-62
2023/01/20 11:42:24;;;;;;;36.20;15.70;;;;;;;6.56;63.65;99675.40;79220;1301;3013323;-62
2023/01/20 11:44:54;;;;;;;36.60;15.80;;;;;;;6.58;63.82;99672.19;77956;1300;3050885;-61
2023/01/20 11:47:25;;;;;;;45.00;16.40;;;;;;;6.58;63.69;99669.60;79330;1298;3013244;-62
2023/01/20 11:50:08;;;;;;;39.90;16.10;;;;;;;6.63;63.55;99672.33;78064;1301;3049833;-62
2023/01/20 11:52:45;;;;;;;40.30;15.00;;;;;;;6.71;63.45;99673.41;78054;1299;3053370;-63
2023/01/20 11:55:16;;;;;;;40.30;15.80;;;;;;;6.83;63.11;99676.91;78051;1311;3050301;-63
2023/01/20 11:58:01;;;;;;;38.70;15.20;;;;;;;6.96;62.80;99677.23;79314;1302;3011791;-62
2023/01/20 12:00:37;;;;;;;31.50;14.80;;;;;;;7.11;62.42;99674.50;77979;1311;3053647;-62
2023/01/20 12:03:14;;;;;;;31.80;15.10;;;;;;;7.35;61.86;99674.88;78745;1297;3013643;-62
2023/01/20 12:05:51;;;;;;;32.60;14.40;;;;;;;7.41;61.58;99678.44;78067;1301;3068955;-62
2023/01/20 12:08:37;;;;;;;36.20;14.80;;;;;;;7.50;61.20;99677.89;77995;1302;3050902;-62
2023/01/20 12:11:06;;;;;;;35.90;15.40;;;;;;;7.49;61.28;99676.86;78030;1299;3056553;-62
2023/01/20 12:16:39;;;;;;;31.80;15.10;;;;;;;7.46;61.61;99675.95;77847;1301;3050833;-62
2023/01/20 12:19:11;;;;;;;35.80;14.10;;;;;;;7.48;61.65;99677.43;78980;1315;3012874;-62
2023/01/20 12:21:44;;;;;;;36.60;13.70;;;;;;;7.50;61.72;99676.66;77921;1301;3069716;-62
2023/01/20 12:24:16;;;;;;;30.90;14.50;;;;;;;7.51;61.67;99673.66;79182;1299;3011930;-62
2023/01/20 12:26:44;;;;;;;29.40;13.20;;;;;;;7.67;61.37;99675.55;78159;1303;3057038;-62
2023/01/20 12:29:21;;;;;;;32.10;14.30;;;;;;;7.82;60.89;99673.64;79141;1297;3013642;-65
2023/01/20 12:31:49;;;;;;;34.20;13.30;;;;;;;7.93;60.29;99678.73;78100;1305;3053459;-62
2023/01/20 12:34:28;;;;;;;41.00;15.50;;;;;;;7.94;60.15;99673.61;79549;1298;3018659;-61
2023/01/20 12:37:23;;;;;;;33.80;12.90;;;;;;;7.89;59.96;99668.98;78093;1298;3052828;-62
2023/01/20 12:40:20;;;;;;;32.80;12.50;;;;;;;7.90;59.63;99667.18;78048;1300;3068849;-62
2023/01/20 12:43:06;;;;;;;29.80;12.70;;;;;;;7.91;59.62;99666.76;78028;1300;3050754;-63
2023/01/20 12:45:43;;;;;;;36.00;14.20;;;;;;;8.01;59.84;99661.42;78067;1300;3056896;-63
2023/01/20 12:48:26;;;;;;;30.10;12.60;;;;;;;8.08;59.70;99656.73;78369;1295;3050787;-63
2023/01/20 12:51:32;;;;;;;29.80;13.50;;;;;;;8.18;59.88;99659.23;78337;1295;3054091;-62
2023/01/20 12:54:25;;;;;;;34.70;15.00;;;;;;;8.24;59.54;99655.31;78019;1300;3050130;-62
2023/01/20 12:56:56;;;;;;;34.00;13.80;;;;;;;8.20;59.61;99655.64;78185;1300;3053255;-61
2023/01/20 12:59:35;;;;;;;28.30;13.00;;;;;;;8.17;59.75;99659.10;79365;1294;3011946;-62
2023/01/20 13:02:17;;;;;;;39.00;15.00;;;;;;;8.14;60.08;99658.56;78021;1300;3068057;-62
2023/01/20 13:04:54;;;;;;;31.80;12.80;;;;;;;8.08;60.26;99659.19;78363;1298;3050398;-62
2023/01/20 13:07:43;;;;;;;32.00;14.30;;;;;;;8.16;60.30;99658.81;78163;1299;3057200;-61
2023/01/20 13:10:30;;;;;;;47.20;16.40;;;;;;;8.17;60.36;99660.01;78250;1298;3049519;-63
2023/01/20 13:13:09;;;;;;;31.70;15.00;;;;;;;8.23;60.00;99660.39;78242;1295;3054503;-62
2023/01/20 13:15:42;;;;;;;31.50;13.20;;;;;;;8.31;60.16;99658.48;78197;1300;3050237;-63
2023/01/20 13:18:29;;;;;;;29.60;13.60;;;;;;;8.23;60.27;99658.67;79564;1295;3013372;-62
2023/01/20 13:20:57;;;;;;;30.00;14.60;;;;;;;8.21;60.34;99655.24;78140;1301;3053418;-62
2023/01/20 13:23:27;;;;;;;30.00;13.80;;;;;;;8.16;60.63;99651.30;79511;1298;3020890;-62
2023/01/20 13:25:56;;;;;;;30.20;15.50;;;;;;;8.17;60.73;99649.18;78922;1295;3013950;-62
2023/01/20 13:28:25;;;;;;;35.70;16.70;;;;;;;8.04;61.14;99649.25;80473;1295;3013139;-61
2023/01/20 13:30:53;;;;;;;32.30;15.00;;;;;;;8.00;61.63;99648.21;79557;1295;3013410;-60
2023/01/20 13:33:35;;;;;;;36.00;14.80;;;;;;;7.97;61.67;99654.11;78240;1298;3050053;-67
2023/01/20 13:36:22;;;;;;;29.70;13.20;;;;;;;7.88;62.50;99653.67;78149;1294;3052942;-61
2023/01/20 13:39:10;;;;;;;34.90;13.80;;;;;;;7.67;62.67;99647.82;78254;1298;3053302;-63
2023/01/20 13:41:47;;;;;;;24.20;12.90;;;;;;;7.55;62.80;99648.88;78142;1296;3069545;-61
2023/01/20 13:44:44;;;;;;;31.20;12.00;;;;;;;7.44;63.09;99647.82;78121;1298;3050816;-62
2023/01/20 13:47:12;;;;;;;30.00;13.00;;;;;;;7.22;63.93;99651.59;77913;1300;3056628;-61
2023/01/20 13:49:47;;;;;;;30.00;15.30;;;;;;;7.14;64.16;99656.45;79405;1295;3013737;-61
2023/01/20 13:52:49;;;;;;;29.80;13.80;;;;;;;7.05;64.19;99655.44;78097;1300;3049862;-62
2023/01/20 13:55:26;;;;;;;23.40;11.30;;;;;;;6.84;64.63;99654.41;78340;1299;3052944;-61
2023/01/20 13:57:54;;;;;;;26.70;12.10;;;;;;;6.76;65.05;99656.64;78053;1298;3054560;-60
2023/01/20 14:00:21;;;;;;;27.40;14.20;;;;;;;6.56;65.92;99654.71;79334;1295;3013147;-60
2023/01/20 14:02:48;;;;;;;31.60;14.20;;;;;;;6.29;66.47;99650.39;79253;1295;3011655;-60
2023/01/20 14:05:28;;;;;;;31.80;13.40;;;;;;;6.21;66.49;99652.98;78260;1298;3049600;-62
2023/01/20 14:07:55;;;;;;;29.80;14.10;;;;;;;6.06;67.05;99650.95;78472;1294;3053281;-60
2023/01/20 14:10:22;;;;;;;34.90;16.60;;;;;;;5.86;67.95;99650.31;79447;1300;3012771;-60
2023/01/20 14:12:49;;;;;;;33.00;15.60;;;;;;;5.76;68.32;99650.16;79606;1299;3013642;-61
2023/01/20 14:15:22;;;;;;;33.40;14.60;;;;;;;5.58;68.54;99644.39;78403;1296;3068510;-62
2023/01/20 14:17:53;;;;;;;37.60;15.20;;;;;;;5.49;68.86;99649.05;79435;1295;3015697;-60
2023/01/20 14:20:22;;;;;;;33.90;15.20;;;;;;;5.40;69.20;99651.66;78358;1300;3056554;-61
2023/01/20 14:22:49;;;;;;;46.30;15.20;;;;;;;5.24;69.82;99649.77;79541;1294;3013093;-59
2023/01/20 14:25:21;;;;;;;34.60;15.30;;;;;;;5.06;70.04;99648.19;79593;1297;3011522;-61
2023/01/20 14:27:49;;;;;;;28.00;13.90;;;;;;;4.98;70.16;99647.03;78271;1300;3052819;-61
2023/01/20 14:30:21;;;;;;;29.70;14.50;;;;;;;4.85;70.64;99654.27;79488;1300;3011760;-61
2023/01/20 14:32:50;;;;;;;30.40;14.10;;;;;;;4.75;71.03;99657.73;78234;1294;3050717;-60
2023/01/20 14:35:30;;;;;;;34.20;16.00;;;;;;;4.71;71.29;99662.52;79647;1295;3012934;-61
2023/01/20 14:37:58;;;;;;;31.20;14.10;;;;;;;4.69;71.36;99665.23;77991;1295;3050372;-61
2023/01/20 14:40:33;;;;;;;30.50;15.30;;;;;;;4.54;71.77;99661.55;79332;1300;3012850;-61
2023/01/20 14:43:20;;;;;;;38.50;15.40;;;;;;;4.36;72.38;99657.95;77911;1300;3052099;-60
2023/01/20 14:45:50;;;;;;;36.70;14.40;;;;;;;4.25;72.63;99659.52;78248;1299;3052347;-61
2023/01/20 14:48:16;;;;;;;34.70;14.70;;;;;;;4.17;72.66;99659.77;79449;1295;3013114;-60
2023/01/20 14:50:44;;;;;;;36.90;15.00;;;;;;;4.07;72.84;99665.95;79246;1300;3011638;-60
2023/01/20 14:53:12;;;;;;;35.50;14.70;;;;;;;4.02;73.18;99665.41;78206;1299;3048741;-60
2023/01/20 14:55:43;;;;;;;37.80;14.20;;;;;;;3.92;73.43;99666.26;79380;1295;3019754;-60
2023/01/20 14:58:14;;;;;;;34.20;16.40;;;;;;;3.85;74.03;99667.33;78870;1295;3011596;-60
2023/01/20 15:00:42;;;;;;;32.50;15.90;;;;;;;3.76;74.28;99668.12;79459;1298;3011523;-60
2023/01/20 15:03:30;;;;;;;34.40;15.70;;;;;;;3.60;75.06;99665.63;78282;1295;3025767;-60
2023/01/20 15:06:16;;;;;;;47.90;15.80;;;;;;;3.48;75.36;99668.22;78083;1300;3069187;-61
2023/01/20 15:08:46;;;;;;;49.40;16.90;;;;;;;3.46;75.14;99668.77;78191;1301;3051152;-61
2023/01/20 15:11:12;;;;;;;38.30;16.50;;;;;;;3.35;75.55;99673.40;79537;1295;3014051;-61
2023/01/20 15:13:41;;;;;;;46.50;16.60;;;;;;;3.27;76.06;99678.15;79367;1295;3011650;-61
2023/01/20 15:16:11;;;;;;;44.10;17.50;;;;;;;3.19;76.25;99676.98;78189;1297;3048778;-61
2023/01/20 15:18:38;;;;;;;45.80;17.30;;;;;;;3.07;76.53;99676.08;79436;1298;3011928;-61
2023/01/20 15:21:15;;;;;;;52.00;17.20;;;;;;;3.02;76.80;99681.07;78953;1297;3011787;-62
2023/01/20 15:23:44;;;;;;;46.00;17.10;;;;;;;2.92;77.42;99684.09;78102;1295;3068614;-61
2023/01/20 15:26:25;;;;;;;48.30;16.80;;;;;;;2.87;77.45;99681.64;79596;1294;3013112;-60
2023/01/20 15:28:53;;;;;;;52.80;17.10;;;;;;;2.82;77.50;99689.68;78248;1300;3056985;-61
2023/01/20 15:31:20;;;;;;;46.70;17.10;;;;;;;2.78;77.64;99684.26;79350;1295;3014802;-61
2023/01/20 15:33:47;;;;;;;44.30;14.80;;;;;;;2.77;77.58;99684.63;79375;1295;3011765;-60
2023/01/20 15:36:15;;;;;;;37.40;12.40;;;;;;;3.11;76.84;99679.92;78062;1299;3052058;-61